createdAt,value
2022-11-17T00:00:02.387Z,991.5
2022-11-17T00:15:02.742Z,991.2
2022-11-17T00:30:03.366Z,991.0
2022-11-17T00:45:02.610Z,990.9
2022-11-17T01:00:03.081Z,990.5
2022-11-17T01:15:02.498Z,990.3
2022-11-17T01:30:02.952Z,989.8
2022-11-17T01:45:02.395Z,989.8
2022-11-17T02:00:02.813Z,989.4
2022-11-17T02:15:03.409Z,989.2
2022-11-17T02:30:02.687Z,989.0
2022-11-17T02:45:03.158Z,988.8
2022-11-17T03:00:02.539Z,988.7
2022-11-17T03:15:02.981Z,988.7
2022-11-17T03:30:02.417Z,988.4
2022-11-17T03:45:02.837Z,988.0
2022-11-17T04:00:03.428Z,988.0
2022-11-17T04:15:02.703Z,987.9
2022-11-17T04:30:02.222Z,987.8
2022-11-17T04:45:02.578Z,987.6
2022-11-17T05:00:03.054Z,987.3
2022-11-17T05:15:02.458Z,986.7
2022-11-17T05:30:02.925Z,986.6
2022-11-17T05:45:02.456Z,986.6
2022-11-17T06:00:02.795Z,986.3
2022-11-17T06:15:03.464Z,986.4
2022-11-17T06:30:02.707Z,986.1
2022-11-17T06:45:03.117Z,986.2
2022-11-17T07:00:02.627Z,986.3
2022-11-17T07:15:03.042Z,986.2
2022-11-17T07:30:02.591Z,985.9
2022-11-17T07:45:02.889Z,986.1
2022-11-17T08:00:02.526Z,986.0
2022-11-17T08:15:02.798Z,986.2
2022-11-17T08:30:02.196Z,986.1
2022-11-17T08:45:02.669Z,986.1
2022-11-17T09:00:03.076Z,986.0
2022-11-17T09:15:02.536Z,986.2
2022-11-17T09:30:02.931Z,986.2
2022-11-17T09:45:02.531Z,986.6
2022-11-17T10:00:02.819Z,986.5
2022-11-17T10:15:03.446Z,986.6
2022-11-17T10:30:02.730Z,986.6
2022-11-17T10:45:03.176Z,986.7
2022-11-17T11:00:02.549Z,986.8
2022-11-17T11:15:03.026Z,986.9
2022-11-17T11:30:02.543Z,986.9
2022-11-17T11:45:02.896Z,986.8
2022-11-17T12:00:04.012Z,986.9
2022-11-17T12:15:02.772Z,986.9
2022-11-17T12:30:02.236Z,987.0
2022-11-17T12:45:02.657Z,987.2
2022-11-17T13:00:03.102Z,987.3
2022-11-17T13:15:02.617Z,987.3
2022-11-17T13:30:02.961Z,987.4
2022-11-17T13:45:02.576Z,987.5
2022-11-17T14:00:02.852Z,987.6
2022-11-17T14:15:02.292Z,987.7
2022-11-17T14:30:02.745Z,987.8
2022-11-17T14:45:03.168Z,988.0
2022-11-17T15:00:02.726Z,988.1
2022-11-17T15:15:03.081Z,988.2
2022-11-17T15:30:02.653Z,988.5
2022-11-17T15:45:02.921Z,988.5
2022-11-17T16:00:02.356Z,988.6
2022-11-17T16:15:02.804Z,988.7
2022-11-17T16:30:02.224Z,988.8
2022-11-17T16:45:02.673Z,988.9
2022-11-17T17:00:03.115Z,988.9
2022-11-17T17:15:02.638Z,989.0
2022-11-17T17:30:03.016Z,989.2
2022-11-17T17:45:02.619Z,989.3
2022-11-17T18:00:02.869Z,989.4
2022-11-17T18:15:02.315Z,989.5
2022-11-17T18:30:02.721Z,989.8
2022-11-17T18:45:03.175Z,989.8
2022-11-17T19:00:02.633Z,989.8
2022-11-17T19:15:03.063Z,990.1
2022-11-17T19:30:02.664Z,990.0
2022-11-17T19:45:02.969Z,990.1
2022-11-17T20:00:02.383Z,990.2
2022-11-17T20:15:02.824Z,990.4
2022-11-17T20:30:02.263Z,990.6
2022-11-17T20:45:02.712Z,990.8
2022-11-17T21:00:03.128Z,990.9
2022-11-17T21:15:02.685Z,991.1
2022-11-17T21:30:02.995Z,991.6
2022-11-17T21:45:02.409Z,991.4
2022-11-17T22:00:02.872Z,991.5
2022-11-17T22:15:05.038Z,991.6
2022-11-17T22:30:02.717Z,991.8
2022-11-17T22:45:03.199Z,991.8
2022-11-17T23:00:02.699Z,992.2
2022-11-17T23:15:02.035Z,992.2
2022-11-17T23:30:02.689Z,992.4
2022-11-17T23:45:02.925Z,992.5
